sensor_id;sensor_type;location;lat;lon;timestamp;P1;durP1;ratioP1;P2;durP2;ratioP2
76939;SDS011;65885;55.848;35.916;2023-07-31T00:01:37;2.88;;;1.48;;
76939;SDS011;65885;55.848;35.916;2023-07-31T00:04:05;1.50;;;1.23;;
76939;SDS011;65885;55.848;35.916;2023-07-31T00:06:33;1.90;;;1.50;;
76939;SDS011;65885;55.848;35.916;2023-07-31T00:09:01;1.80;;;1.50;;
76939;SDS011;65885;55.848;35.916;2023-07-31T00:11:28;2.15;;;1.50;;
76939;SDS011;65885;55.848;35.916;2023-07-31T00:13:56;2.35;;;1.40;;
76939;SDS011;65885;55.848;35.916;2023-07-31T00:16:23;1.95;;;1.58;;
76939;SDS011;65885;55.848;35.916;2023-07-31T00:18:51;5.32;;;2.72;;
76939;SDS011;65885;55.848;35.916;2023-07-31T00:21:18;3.78;;;2.00;;
76939;SDS011;65885;55.848;35.916;2023-07-31T00:23:47;2.42;;;1.75;;
76939;SDS011;65885;55.848;35.916;2023-07-31T00:26:14;3.17;;;2.28;;
76939;SDS011;65885;55.848;35.916;2023-07-31T00:28:41;4.68;;;2.30;;
76939;SDS011;65885;55.848;35.916;2023-07-31T00:31:08;3.95;;;2.33;;
76939;SDS011;65885;55.848;35.916;2023-07-31T00:33:36;12.05;;;2.22;;
76939;SDS011;65885;55.848;35.916;2023-07-31T00:36:04;6.40;;;2.17;;
76939;SDS011;65885;55.848;35.916;2023-07-31T00:38:32;3.92;;;1.83;;
76939;SDS011;65885;55.848;35.916;2023-07-31T00:41:00;6.13;;;1.83;;
76939;SDS011;65885;55.848;35.916;2023-07-31T00:43:28;9.55;;;2.05;;
76939;SDS011;65885;55.848;35.916;2023-07-31T00:45:55;4.15;;;1.95;;
76939;SDS011;65885;55.848;35.916;2023-07-31T00:48:23;2.35;;;1.85;;
76939;SDS011;65885;55.848;35.916;2023-07-31T00:50:50;7.75;;;2.67;;
76939;SDS011;65885;55.848;35.916;2023-07-31T00:53:18;17.08;;;3.45;;
76939;SDS011;65885;55.848;35.916;2023-07-31T00:55:45;4.15;;;1.92;;
76939;SDS011;65885;55.848;35.916;2023-07-31T00:58:14;12.15;;;1.75;;
76939;SDS011;65885;55.848;35.916;2023-07-31T01:00:41;5.93;;;1.73;;
76939;SDS011;65885;55.848;35.916;2023-07-31T01:03:09;28.83;;;25.35;;
76939;SDS011;65885;55.848;35.916;2023-07-31T01:05:39;232.70;;;163.23;;
76939;SDS011;65885;55.848;35.916;2023-07-31T01:08:12;522.30;;;347.67;;
76939;SDS011;65885;55.848;35.916;2023-07-31T01:10:47;713.33;;;471.25;;
76939;SDS011;65885;55.848;35.916;2023-07-31T01:13:19;856.35;;;531.38;;
76939;SDS011;65885;55.848;35.916;2023-07-31T01:15:47;773.30;;;471.83;;
76939;SDS011;65885;55.848;35.916;2023-07-31T01:18:15;606.45;;;337.50;;
76939;SDS011;65885;55.848;35.916;2023-07-31T01:20:42;495.92;;;260.90;;
76939;SDS011;65885;55.848;35.916;2023-07-31T01:23:31;417.23;;;211.20;;
76939;SDS011;65885;55.848;35.916;2023-07-31T01:26:15;335.98;;;161.93;;
76939;SDS011;65885;55.848;35.916;2023-07-31T01:28:47;332.42;;;156.63;;
76939;SDS011;65885;55.848;35.916;2023-07-31T01:31:23;232.48;;;110.97;;
76939;SDS011;65885;55.848;35.916;2023-07-31T01:33:51;205.00;;;91.75;;
76939;SDS011;65885;55.848;35.916;2023-07-31T01:36:21;168.63;;;76.03;;
76939;SDS011;65885;55.848;35.916;2023-07-31T01:38:48;164.02;;;72.30;;
76939;SDS011;65885;55.848;35.916;2023-07-31T01:41:18;146.27;;;64.60;;
76939;SDS011;65885;55.848;35.916;2023-07-31T01:43:45;47.70;;;22.00;;
76939;SDS011;65885;55.848;35.916;2023-07-31T01:46:13;31.48;;;14.98;;
76939;SDS011;65885;55.848;35.916;2023-07-31T01:48:40;22.95;;;10.60;;
76939;SDS011;65885;55.848;35.916;2023-07-31T01:51:07;42.80;;;18.17;;
76939;SDS011;65885;55.848;35.916;2023-07-31T01:53:35;39.35;;;17.13;;
76939;SDS011;65885;55.848;35.916;2023-07-31T01:56:02;35.22;;;16.17;;
76939;SDS011;65885;55.848;35.916;2023-07-31T01:58:31;38.47;;;16.40;;
76939;SDS011;65885;55.848;35.916;2023-07-31T02:00:58;34.08;;;15.10;;
76939;SDS011;65885;55.848;35.916;2023-07-31T02:03:26;28.02;;;11.70;;
76939;SDS011;65885;55.848;35.916;2023-07-31T02:05:53;22.60;;;10.63;;
76939;SDS011;65885;55.848;35.916;2023-07-31T02:08:22;21.50;;;9.55;;
76939;SDS011;65885;55.848;35.916;2023-07-31T02:10:49;16.50;;;7.50;;
76939;SDS011;65885;55.848;35.916;2023-07-31T02:13:16;14.25;;;6.90;;
76939;SDS011;65885;55.848;35.916;2023-07-31T02:15:46;13.77;;;7.43;;
76939;SDS011;65885;55.848;35.916;2023-07-31T02:18:13;12.50;;;6.97;;
76939;SDS011;65885;55.848;35.916;2023-07-31T02:20:40;12.00;;;6.63;;
76939;SDS011;65885;55.848;35.916;2023-07-31T02:23:08;12.95;;;7.45;;
76939;SDS011;65885;55.848;35.916;2023-07-31T02:25:35;12.45;;;7.88;;
76939;SDS011;65885;55.848;35.916;2023-07-31T02:28:03;15.82;;;9.27;;
76939;SDS011;65885;55.848;35.916;2023-07-31T02:30:31;13.60;;;8.18;;
76939;SDS011;65885;55.848;35.916;2023-07-31T02:32:59;8.35;;;5.97;;
76939;SDS011;65885;55.848;35.916;2023-07-31T02:35:26;10.15;;;4.68;;
76939;SDS011;65885;55.848;35.916;2023-07-31T02:37:54;11.50;;;4.30;;
76939;SDS011;65885;55.848;35.916;2023-07-31T02:40:21;4.80;;;3.05;;
76939;SDS011;65885;55.848;35.916;2023-07-31T02:42:48;5.20;;;2.70;;
76939;SDS011;65885;55.848;35.916;2023-07-31T02:45:16;4.00;;;2.25;;
76939;SDS011;65885;55.848;35.916;2023-07-31T02:47:43;3.40;;;2.10;;
76939;SDS011;65885;55.848;35.916;2023-07-31T02:50:12;4.07;;;2.45;;
76939;SDS011;65885;55.848;35.916;2023-07-31T02:52:39;102.15;;;91.03;;
76939;SDS011;65885;55.848;35.916;2023-07-31T02:55:06;418.70;;;374.95;;
76939;SDS011;65885;55.848;35.916;2023-07-31T02:57:34;700.40;;;623.70;;
76939;SDS011;65885;55.848;35.916;2023-07-31T03:00:01;1012.10;;;775.28;;
76939;SDS011;65885;55.848;35.916;2023-07-31T03:02:31;1356.60;;;867.35;;
76939;SDS011;65885;55.848;35.916;2023-07-31T03:04:58;1614.05;;;919.53;;
76939;SDS011;65885;55.848;35.916;2023-07-31T03:07:27;1827.20;;;962.92;;
76939;SDS011;65885;55.848;35.916;2023-07-31T03:09:55;1999.90;;;999.90;;
76939;SDS011;65885;55.848;35.916;2023-07-31T03:12:23;1986.90;;;987.65;;
76939;SDS011;65885;55.848;35.916;2023-07-31T03:14:50;1601.85;;;907.83;;
76939;SDS011;65885;55.848;35.916;2023-07-31T03:17:17;1292.95;;;815.47;;
76939;SDS011;65885;55.848;35.916;2023-07-31T03:19:44;1014.00;;;713.28;;
76939;SDS011;65885;55.848;35.916;2023-07-31T03:22:12;882.55;;;640.35;;
76939;SDS011;65885;55.848;35.916;2023-07-31T03:24:40;692.15;;;500.80;;
76939;SDS011;65885;55.848;35.916;2023-07-31T03:27:08;449.38;;;292.85;;
76939;SDS011;65885;55.848;35.916;2023-07-31T03:29:35;517.72;;;343.00;;
76939;SDS011;65885;55.848;35.916;2023-07-31T03:32:02;458.65;;;293.00;;
76939;SDS011;65885;55.848;35.916;2023-07-31T03:34:30;427.98;;;263.50;;
76939;SDS011;65885;55.848;35.916;2023-07-31T03:36:59;339.70;;;207.82;;
76939;SDS011;65885;55.848;35.916;2023-07-31T03:39:26;294.90;;;176.93;;
76939;SDS011;65885;55.848;35.916;2023-07-31T03:41:55;239.07;;;135.25;;
76939;SDS011;65885;55.848;35.916;2023-07-31T03:44:23;125.57;;;68.75;;
76939;SDS011;65885;55.848;35.916;2023-07-31T03:46:50;155.52;;;83.28;;
76939;SDS011;65885;55.848;35.916;2023-07-31T03:49:17;141.68;;;75.28;;
76939;SDS011;65885;55.848;35.916;2023-07-31T03:51:44;110.32;;;57.35;;
76939;SDS011;65885;55.848;35.916;2023-07-31T03:54:12;61.20;;;32.90;;
76939;SDS011;65885;55.848;35.916;2023-07-31T03:56:39;55.50;;;30.98;;
76939;SDS011;65885;55.848;35.916;2023-07-31T03:59:08;22.30;;;13.77;;
76939;SDS011;65885;55.848;35.916;2023-07-31T04:01:35;50.60;;;25.65;;
76939;SDS011;65885;55.848;35.916;2023-07-31T04:04:03;45.08;;;23.73;;
76939;SDS011;65885;55.848;35.916;2023-07-31T04:06:30;25.88;;;14.73;;
76939;SDS011;65885;55.848;35.916;2023-07-31T04:08:58;23.45;;;13.30;;
76939;SDS011;65885;55.848;35.916;2023-07-31T04:11:25;20.65;;;11.55;;
76939;SDS011;65885;55.848;35.916;2023-07-31T04:13:52;19.83;;;10.05;;
76939;SDS011;65885;55.848;35.916;2023-07-31T04:16:21;17.02;;;9.23;;
76939;SDS011;65885;55.848;35.916;2023-07-31T04:18:48;13.90;;;8.05;;
76939;SDS011;65885;55.848;35.916;2023-07-31T04:21:15;16.33;;;8.32;;
76939;SDS011;65885;55.848;35.916;2023-07-31T04:23:43;14.90;;;8.45;;
76939;SDS011;65885;55.848;35.916;2023-07-31T04:26:10;15.30;;;8.70;;
76939;SDS011;65885;55.848;35.916;2023-07-31T04:28:37;10.90;;;6.47;;
76939;SDS011;65885;55.848;35.916;2023-07-31T04:31:04;11.15;;;6.28;;
76939;SDS011;65885;55.848;35.916;2023-07-31T04:33:33;6.13;;;4.13;;
76939;SDS011;65885;55.848;35.916;2023-07-31T04:36:00;6.90;;;4.18;;
76939;SDS011;65885;55.848;35.916;2023-07-31T04:38:28;7.03;;;3.92;;
76939;SDS011;65885;55.848;35.916;2023-07-31T04:40:55;6.47;;;3.53;;
76939;SDS011;65885;55.848;35.916;2023-07-31T04:43:22;5.07;;;3.08;;
76939;SDS011;65885;55.848;35.916;2023-07-31T04:45:49;6.10;;;3.13;;
76939;SDS011;65885;55.848;35.916;2023-07-31T04:48:19;5.32;;;3.28;;
76939;SDS011;65885;55.848;35.916;2023-07-31T04:50:48;3.75;;;2.83;;
76939;SDS011;65885;55.848;35.916;2023-07-31T04:53:15;4.63;;;2.65;;
76939;SDS011;65885;55.848;35.916;2023-07-31T04:55:42;3.17;;;2.38;;
76939;SDS011;65885;55.848;35.916;2023-07-31T04:58:09;3.30;;;2.00;;
76939;SDS011;65885;55.848;35.916;2023-07-31T05:00:37;2.65;;;2.00;;
76939;SDS011;65885;55.848;35.916;2023-07-31T05:03:04;2.50;;;1.90;;
76939;SDS011;65885;55.848;35.916;2023-07-31T05:05:32;2.45;;;1.83;;
76939;SDS011;65885;55.848;35.916;2023-07-31T05:08:00;2.85;;;2.00;;
76939;SDS011;65885;55.848;35.916;2023-07-31T05:10:28;2.78;;;1.90;;
76939;SDS011;65885;55.848;35.916;2023-07-31T05:12:55;2.97;;;2.13;;
76939;SDS011;65885;55.848;35.916;2023-07-31T05:15:23;2.53;;;1.73;;
76939;SDS011;65885;55.848;35.916;2023-07-31T05:17:50;1.90;;;1.60;;
76939;SDS011;65885;55.848;35.916;2023-07-31T05:20:17;1.88;;;1.60;;
76939;SDS011;65885;55.848;35.916;2023-07-31T05:22:45;2.63;;;1.67;;
76939;SDS011;65885;55.848;35.916;2023-07-31T05:25:13;2.45;;;1.70;;
76939;SDS011;65885;55.848;35.916;2023-07-31T05:27:41;2.78;;;1.90;;
76939;SDS011;65885;55.848;35.916;2023-07-31T05:30:08;1.90;;;1.60;;
76939;SDS011;65885;55.848;35.916;2023-07-31T05:32:36;2.45;;;1.73;;
76939;SDS011;65885;55.848;35.916;2023-07-31T05:35:03;1.90;;;1.40;;
76939;SDS011;65885;55.848;35.916;2023-07-31T05:37:31;1.70;;;1.60;;
76939;SDS011;65885;55.848;35.916;2023-07-31T05:39:58;216.77;;;174.32;;
76939;SDS011;65885;55.848;35.916;2023-07-31T05:42:27;683.58;;;568.05;;
76939;SDS011;65885;55.848;35.916;2023-07-31T05:44:54;1099.18;;;794.40;;
76939;SDS011;65885;55.848;35.916;2023-07-31T05:47:21;1409.55;;;874.88;;
76939;SDS011;65885;55.848;35.916;2023-07-31T05:49:49;1844.47;;;983.25;;
76939;SDS011;65885;55.848;35.916;2023-07-31T05:52:17;1999.90;;;999.90;;
76939;SDS011;65885;55.848;35.916;2023-07-31T05:54:45;1999.90;;;999.90;;
76939;SDS011;65885;55.848;35.916;2023-07-31T05:57:12;1999.90;;;999.90;;
76939;SDS011;65885;55.848;35.916;2023-07-31T05:59:41;1999.90;;;999.90;;
76939;SDS011;65885;55.848;35.916;2023-07-31T06:02:08;1834.72;;;999.90;;
76939;SDS011;65885;55.848;35.916;2023-07-31T06:04:35;992.22;;;767.35;;
76939;SDS011;65885;55.848;35.916;2023-07-31T06:07:03;820.65;;;677.33;;
76939;SDS011;65885;55.848;35.916;2023-07-31T06:09:30;676.90;;;578.88;;
76939;SDS011;65885;55.848;35.916;2023-07-31T06:11:58;557.85;;;453.85;;
76939;SDS011;65885;55.848;35.916;2023-07-31T06:14:25;473.00;;;383.23;;
76939;SDS011;65885;55.848;35.916;2023-07-31T06:16:54;319.08;;;251.75;;
76939;SDS011;65885;55.848;35.916;2023-07-31T06:19:21;239.10;;;188.35;;
76939;SDS011;65885;55.848;35.916;2023-07-31T06:21:48;132.38;;;93.55;;
76939;SDS011;65885;55.848;35.916;2023-07-31T06:24:16;100.93;;;75.55;;
76939;SDS011;65885;55.848;35.916;2023-07-31T06:26:45;68.35;;;45.95;;
76939;SDS011;65885;55.848;35.916;2023-07-31T06:29:12;50.28;;;35.45;;
76939;SDS011;65885;55.848;35.916;2023-07-31T06:31:40;30.95;;;21.75;;
76939;SDS011;65885;55.848;35.916;2023-07-31T06:34:09;24.92;;;17.83;;
76939;SDS011;65885;55.848;35.916;2023-07-31T06:36:36;16.33;;;12.32;;
76939;SDS011;65885;55.848;35.916;2023-07-31T06:39:04;11.95;;;8.60;;
76939;SDS011;65885;55.848;35.916;2023-07-31T06:41:31;7.88;;;5.75;;
76939;SDS011;65885;55.848;35.916;2023-07-31T06:43:58;5.65;;;3.90;;
76939;SDS011;65885;55.848;35.916;2023-07-31T06:46:26;4.78;;;3.72;;
76939;SDS011;65885;55.848;35.916;2023-07-31T06:48:53;4.28;;;3.00;;
76939;SDS011;65885;55.848;35.916;2023-07-31T06:51:22;2.25;;;1.80;;
76939;SDS011;65885;55.848;35.916;2023-07-31T06:53:49;3.33;;;2.17;;
76939;SDS011;65885;55.848;35.916;2023-07-31T06:56:16;3.28;;;1.90;;
76939;SDS011;65885;55.848;35.916;2023-07-31T06:58:44;1.75;;;1.60;;
76939;SDS011;65885;55.848;35.916;2023-07-31T07:01:11;1.38;;;1.00;;
76939;SDS011;65885;55.848;35.916;2023-07-31T07:03:38;1.80;;;1.00;;
76939;SDS011;65885;55.848;35.916;2023-07-31T07:06:05;1.20;;;1.05;;
76939;SDS011;65885;55.848;35.916;2023-07-31T07:08:34;1.88;;;1.15;;
76939;SDS011;65885;55.848;35.916;2023-07-31T07:11:01;1.20;;;1.10;;
76939;SDS011;65885;55.848;35.916;2023-07-31T07:13:29;1.85;;;1.10;;
76939;SDS011;65885;55.848;35.916;2023-07-31T07:15:56;18.40;;;16.85;;
76939;SDS011;65885;55.848;35.916;2023-07-31T07:18:23;425.55;;;383.50;;
76939;SDS011;65885;55.848;35.916;2023-07-31T07:20:52;787.42;;;695.72;;
76939;SDS011;65885;55.848;35.916;2023-07-31T07:23:20;849.15;;;754.42;;
76939;SDS011;65885;55.848;35.916;2023-07-31T07:25:49;649.88;;;582.03;;
76939;SDS011;65885;55.848;35.916;2023-07-31T07:28:16;359.65;;;320.48;;
76939;SDS011;65885;55.848;35.916;2023-07-31T07:30:44;224.95;;;199.60;;
76939;SDS011;65885;55.848;35.916;2023-07-31T07:33:11;135.10;;;114.13;;
76939;SDS011;65885;55.848;35.916;2023-07-31T07:35:39;78.10;;;62.83;;
76939;SDS011;65885;55.848;35.916;2023-07-31T07:38:07;32.70;;;25.08;;
76939;SDS011;65885;55.848;35.916;2023-07-31T07:40:38;21.10;;;17.00;;
76939;SDS011;65885;55.848;35.916;2023-07-31T07:43:07;15.90;;;11.38;;
76939;SDS011;65885;55.848;35.916;2023-07-31T07:45:34;10.15;;;8.40;;
76939;SDS011;65885;55.848;35.916;2023-07-31T07:48:02;6.55;;;4.97;;
76939;SDS011;65885;55.848;35.916;2023-07-31T07:50:30;4.35;;;3.65;;
76939;SDS011;65885;55.848;35.916;2023-07-31T07:52:58;2.72;;;1.90;;
76939;SDS011;65885;55.848;35.916;2023-07-31T07:55:25;2.10;;;1.60;;
76939;SDS011;65885;55.848;35.916;2023-07-31T07:57:52;2.28;;;1.25;;
76939;SDS011;65885;55.848;35.916;2023-07-31T08:00:21;1.50;;;1.13;;
76939;SDS011;65885;55.848;35.916;2023-07-31T08:02:48;1.83;;;1.20;;
76939;SDS011;65885;55.848;35.916;2023-07-31T08:05:16;1.45;;;0.95;;
76939;SDS011;65885;55.848;35.916;2023-07-31T08:07:44;1.30;;;1.10;;
76939;SDS011;65885;55.848;35.916;2023-07-31T08:10:11;2.63;;;1.48;;
76939;SDS011;65885;55.848;35.916;2023-07-31T08:12:38;4.57;;;2.50;;
76939;SDS011;65885;55.848;35.916;2023-07-31T08:15:06;6.43;;;3.35;;
76939;SDS011;65885;55.848;35.916;2023-07-31T08:17:35;6.00;;;3.55;;
76939;SDS011;65885;55.848;35.916;2023-07-31T08:20:03;6.00;;;2.42;;
76939;SDS011;65885;55.848;35.916;2023-07-31T08:22:31;4.20;;;2.13;;
76939;SDS011;65885;55.848;35.916;2023-07-31T08:24:58;1.92;;;1.33;;
76939;SDS011;65885;55.848;35.916;2023-07-31T08:27:26;2.28;;;1.50;;
76939;SDS011;65885;55.848;35.916;2023-07-31T08:29:53;2.58;;;1.73;;
76939;SDS011;65885;55.848;35.916;2023-07-31T08:32:21;2.08;;;1.30;;
76939;SDS011;65885;55.848;35.916;2023-07-31T08:34:49;2.00;;;1.50;;
76939;SDS011;65885;55.848;35.916;2023-07-31T08:37:17;1.52;;;1.20;;
76939;SDS011;65885;55.848;35.916;2023-07-31T08:39:44;1.73;;;1.13;;
76939;SDS011;65885;55.848;35.916;2023-07-31T08:42:11;1.27;;;1.10;;
76939;SDS011;65885;55.848;35.916;2023-07-31T08:44:39;2.60;;;1.23;;
76939;SDS011;65885;55.848;35.916;2023-07-31T08:47:06;1.23;;;1.10;;
76939;SDS011;65885;55.848;35.916;2023-07-31T08:49:34;1.55;;;1.30;;
76939;SDS011;65885;55.848;35.916;2023-07-31T08:52:06;1.30;;;0.98;;
76939;SDS011;65885;55.848;35.916;2023-07-31T08:54:33;1.42;;;1.20;;
76939;SDS011;65885;55.848;35.916;2023-07-31T08:57:01;1.95;;;1.10;;
76939;SDS011;65885;55.848;35.916;2023-07-31T08:59:29;0.90;;;0.90;;
76939;SDS011;65885;55.848;35.916;2023-07-31T09:01:58;1.10;;;0.85;;
76939;SDS011;65885;55.848;35.916;2023-07-31T09:04:32;1.20;;;1.10;;
76939;SDS011;65885;55.848;35.916;2023-07-31T09:07:00;3.35;;;1.70;;
76939;SDS011;65885;55.848;35.916;2023-07-31T09:09:31;2.45;;;1.05;;
76939;SDS011;65885;55.848;35.916;2023-07-31T09:11:58;1.70;;;1.20;;
76939;SDS011;65885;55.848;35.916;2023-07-31T09:14:26;1.05;;;0.90;;
76939;SDS011;65885;55.848;35.916;2023-07-31T09:16:54;2.35;;;1.13;;
76939;SDS011;65885;55.848;35.916;2023-07-31T09:19:27;1.52;;;1.10;;
76939;SDS011;65885;55.848;35.916;2023-07-31T09:21:56;1.50;;;0.90;;
76939;SDS011;65885;55.848;35.916;2023-07-31T09:24:27;1.52;;;0.93;;
76939;SDS011;65885;55.848;35.916;2023-07-31T09:26:57;2.20;;;1.00;;
76939;SDS011;65885;55.848;35.916;2023-07-31T09:29:26;1.55;;;1.30;;
76939;SDS011;65885;55.848;35.916;2023-07-31T09:31:54;1.40;;;1.10;;
76939;SDS011;65885;55.848;35.916;2023-07-31T09:34:28;1.80;;;1.08;;
76939;SDS011;65885;55.848;35.916;2023-07-31T09:36:59;1.63;;;1.30;;
76939;SDS011;65885;55.848;35.916;2023-07-31T09:39:29;1.20;;;1.00;;
76939;SDS011;65885;55.848;35.916;2023-07-31T09:41:58;2.58;;;1.13;;
76939;SDS011;65885;55.848;35.916;2023-07-31T09:47:13;2.22;;;1.20;;
76939;SDS011;65885;55.848;35.916;2023-07-31T09:49:49;1.67;;;1.13;;
76939;SDS011;65885;55.848;35.916;2023-07-31T09:52:16;1.92;;;1.00;;
76939;SDS011;65885;55.848;35.916;2023-07-31T09:54:43;2.35;;;1.10;;
76939;SDS011;65885;55.848;35.916;2023-07-31T09:57:13;1.25;;;1.00;;
76939;SDS011;65885;55.848;35.916;2023-07-31T09:59:42;1.45;;;1.30;;
76939;SDS011;65885;55.848;35.916;2023-07-31T10:02:10;1.20;;;0.93;;
76939;SDS011;65885;55.848;35.916;2023-07-31T10:04:42;1.08;;;0.85;;
76939;SDS011;65885;55.848;35.916;2023-07-31T10:07:12;1.80;;;1.10;;
76939;SDS011;65885;55.848;35.916;2023-07-31T10:09:40;1.40;;;0.95;;
76939;SDS011;65885;55.848;35.916;2023-07-31T10:12:08;3.03;;;1.20;;
76939;SDS011;65885;55.848;35.916;2023-07-31T10:14:40;1.40;;;1.10;;
76939;SDS011;65885;55.848;35.916;2023-07-31T10:17:09;2.60;;;0.90;;
76939;SDS011;65885;55.848;35.916;2023-07-31T10:19:37;1.90;;;0.93;;
76939;SDS011;65885;55.848;35.916;2023-07-31T10:22:06;1.50;;;1.10;;
76939;SDS011;65885;55.848;35.916;2023-07-31T10:24:34;2.17;;;1.00;;
76939;SDS011;65885;55.848;35.916;2023-07-31T10:27:03;3.53;;;1.05;;
76939;SDS011;65885;55.848;35.916;2023-07-31T10:29:31;10.40;;;2.10;;
76939;SDS011;65885;55.848;35.916;2023-07-31T10:32:01;3.90;;;1.13;;
76939;SDS011;65885;55.848;35.916;2023-07-31T10:34:32;5.15;;;1.20;;
76939;SDS011;65885;55.848;35.916;2023-07-31T10:37:19;2.03;;;1.13;;
76939;SDS011;65885;55.848;35.916;2023-07-31T10:39:54;2.00;;;1.17;;
76939;SDS011;65885;55.848;35.916;2023-07-31T10:42:33;1.35;;;1.10;;
76939;SDS011;65885;55.848;35.916;2023-07-31T10:45:02;1.67;;;0.90;;
76939;SDS011;65885;55.848;35.916;2023-07-31T10:47:37;1.48;;;1.10;;
76939;SDS011;65885;55.848;35.916;2023-07-31T10:50:11;1.58;;;0.95;;
76939;SDS011;65885;55.848;35.916;2023-07-31T10:52:40;1.00;;;0.90;;
76939;SDS011;65885;55.848;35.916;2023-07-31T10:55:24;1.88;;;0.98;;
76939;SDS011;65885;55.848;35.916;2023-07-31T10:57:54;1.30;;;0.88;;
76939;SDS011;65885;55.848;35.916;2023-07-31T11:00:23;1.73;;;1.00;;
76939;SDS011;65885;55.848;35.916;2023-07-31T11:02:57;1.70;;;1.02;;
76939;SDS011;65885;55.848;35.916;2023-07-31T11:08:15;1.40;;;1.30;;
76939;SDS011;65885;55.848;35.916;2023-07-31T11:10:46;2.58;;;1.38;;
76939;SDS011;65885;55.848;35.916;2023-07-31T11:13:16;2.50;;;1.10;;
76939;SDS011;65885;55.848;35.916;2023-07-31T11:15:44;1.33;;;1.20;;
76939;SDS011;65885;55.848;35.916;2023-07-31T11:18:13;1.75;;;1.13;;
76939;SDS011;65885;55.848;35.916;2023-07-31T11:20:42;1.77;;;1.42;;
76939;SDS011;65885;55.848;35.916;2023-07-31T11:23:09;1.67;;;1.23;;
76939;SDS011;65885;55.848;35.916;2023-07-31T11:25:39;1.80;;;1.23;;
76939;SDS011;65885;55.848;35.916;2023-07-31T11:28:19;1.20;;;1.10;;
76939;SDS011;65885;55.848;35.916;2023-07-31T11:30:46;1.38;;;1.15;;
76939;SDS011;65885;55.848;35.916;2023-07-31T11:33:15;2.45;;;1.73;;
76939;SDS011;65885;55.848;35.916;2023-07-31T11:35:43;2.28;;;1.60;;
76939;SDS011;65885;55.848;35.916;2023-07-31T11:38:12;3.22;;;1.73;;
76939;SDS011;65885;55.848;35.916;2023-07-31T11:40:48;3.10;;;1.73;;
76939;SDS011;65885;55.848;35.916;2023-07-31T11:43:15;2.42;;;1.50;;
76939;SDS011;65885;55.848;35.916;2023-07-31T11:45:44;2.42;;;1.55;;
76939;SDS011;65885;55.848;35.916;2023-07-31T11:48:19;3.42;;;1.67;;
76939;SDS011;65885;55.848;35.916;2023-07-31T11:50:48;2.63;;;1.75;;
76939;SDS011;65885;55.848;35.916;2023-07-31T11:53:17;2.47;;;1.70;;
76939;SDS011;65885;55.848;35.916;2023-07-31T11:55:48;3.33;;;1.63;;
76939;SDS011;65885;55.848;35.916;2023-07-31T11:58:16;2.63;;;1.70;;
76939;SDS011;65885;55.848;35.916;2023-07-31T12:00:45;2.42;;;1.90;;
76939;SDS011;65885;55.848;35.916;2023-07-31T12:03:13;4.22;;;2.20;;
76939;SDS011;65885;55.848;35.916;2023-07-31T12:05:42;3.67;;;1.83;;
76939;SDS011;65885;55.848;35.916;2023-07-31T12:08:09;2.45;;;1.70;;
76939;SDS011;65885;55.848;35.916;2023-07-31T12:10:38;2.75;;;1.77;;
76939;SDS011;65885;55.848;35.916;2023-07-31T12:13:07;2.92;;;1.80;;
76939;SDS011;65885;55.848;35.916;2023-07-31T12:15:39;2.80;;;1.50;;
76939;SDS011;65885;55.848;35.916;2023-07-31T12:18:08;2.22;;;1.70;;
76939;SDS011;65885;55.848;35.916;2023-07-31T12:20:43;2.00;;;1.60;;
76939;SDS011;65885;55.848;35.916;2023-07-31T12:23:15;1.83;;;1.65;;
76939;SDS011;65885;55.848;35.916;2023-07-31T12:25:44;5.90;;;5.30;;
76939;SDS011;65885;55.848;35.916;2023-07-31T12:28:11;6.70;;;6.10;;
76939;SDS011;65885;55.848;35.916;2023-07-31T12:30:39;7.25;;;6.40;;
76939;SDS011;65885;55.848;35.916;2023-07-31T12:33:12;5.13;;;4.63;;
76939;SDS011;65885;55.848;35.916;2023-07-31T12:35:44;6.18;;;5.60;;
76939;SDS011;65885;55.848;35.916;2023-07-31T12:38:13;7.38;;;6.70;;
76939;SDS011;65885;55.848;35.916;2023-07-31T12:40:41;5.18;;;4.72;;
76939;SDS011;65885;55.848;35.916;2023-07-31T12:43:08;4.13;;;3.22;;
76939;SDS011;65885;55.848;35.916;2023-07-31T12:45:36;3.30;;;3.00;;
76939;SDS011;65885;55.848;35.916;2023-07-31T12:48:03;2.88;;;2.40;;
76939;SDS011;65885;55.848;35.916;2023-07-31T12:50:31;3.15;;;2.50;;
76939;SDS011;65885;55.848;35.916;2023-07-31T12:53:00;3.38;;;1.90;;
76939;SDS011;65885;55.848;35.916;2023-07-31T12:55:27;2.63;;;1.90;;
76939;SDS011;65885;55.848;35.916;2023-07-31T12:57:55;1.88;;;1.70;;
76939;SDS011;65885;55.848;35.916;2023-07-31T13:00:22;1.85;;;1.70;;
76939;SDS011;65885;55.848;35.916;2023-07-31T13:02:51;2.20;;;1.98;;
76939;SDS011;65885;55.848;35.916;2023-07-31T13:05:18;5.40;;;4.65;;
76939;SDS011;65885;55.848;35.916;2023-07-31T13:07:46;123.15;;;104.10;;
76939;SDS011;65885;55.848;35.916;2023-07-31T13:10:15;533.03;;;471.58;;
76939;SDS011;65885;55.848;35.916;2023-07-31T13:12:42;800.35;;;657.83;;
76939;SDS011;65885;55.848;35.916;2023-07-31T13:15:10;998.15;;;733.60;;
76939;SDS011;65885;55.848;35.916;2023-07-31T13:17:37;1025.13;;;721.75;;
76939;SDS011;65885;55.848;35.916;2023-07-31T13:20:05;806.15;;;619.42;;
76939;SDS011;65885;55.848;35.916;2023-07-31T13:22:33;535.50;;;377.83;;
76939;SDS011;65885;55.848;35.916;2023-07-31T13:25:01;293.15;;;177.45;;
76939;SDS011;65885;55.848;35.916;2023-07-31T13:27:31;201.68;;;118.35;;
76939;SDS011;65885;55.848;35.916;2023-07-31T13:29:58;90.72;;;46.88;;
76939;SDS011;65885;55.848;35.916;2023-07-31T13:32:25;24.90;;;13.88;;
76939;SDS011;65885;55.848;35.916;2023-07-31T13:34:53;12.20;;;6.70;;
76939;SDS011;65885;55.848;35.916;2023-07-31T13:37:20;14.73;;;8.20;;
76939;SDS011;65885;55.848;35.916;2023-07-31T13:39:47;12.23;;;6.85;;
76939;SDS011;65885;55.848;35.916;2023-07-31T13:42:14;4.35;;;3.53;;
76939;SDS011;65885;55.848;35.916;2023-07-31T13:44:43;6.50;;;3.92;;
76939;SDS011;65885;55.848;35.916;2023-07-31T13:47:10;6.38;;;3.80;;
76939;SDS011;65885;55.848;35.916;2023-07-31T13:49:38;5.07;;;3.15;;
76939;SDS011;65885;55.848;35.916;2023-07-31T13:52:05;6.03;;;3.03;;
76939;SDS011;65885;55.848;35.916;2023-07-31T13:54:33;3.88;;;2.42;;
76939;SDS011;65885;55.848;35.916;2023-07-31T13:57:00;3.50;;;2.58;;
76939;SDS011;65885;55.848;35.916;2023-07-31T13:59:28;4.13;;;2.72;;
76939;SDS011;65885;55.848;35.916;2023-07-31T14:01:57;3.38;;;2.53;;
76939;SDS011;65885;55.848;35.916;2023-07-31T14:04:24;2.72;;;2.22;;
76939;SDS011;65885;55.848;35.916;2023-07-31T14:06:51;3.80;;;2.60;;
76939;SDS011;65885;55.848;35.916;2023-07-31T14:09:19;4.65;;;2.92;;
76939;SDS011;65885;55.848;35.916;2023-07-31T14:11:46;176.02;;;138.90;;
76939;SDS011;65885;55.848;35.916;2023-07-31T14:14:13;570.10;;;476.40;;
76939;SDS011;65885;55.848;35.916;2023-07-31T14:16:41;563.78;;;460.00;;
76939;SDS011;65885;55.848;35.916;2023-07-31T14:19:09;355.88;;;263.52;;
76939;SDS011;65885;55.848;35.916;2023-07-31T14:21:37;211.10;;;144.65;;
76939;SDS011;65885;55.848;35.916;2023-07-31T14:24:04;97.13;;;65.03;;
76939;SDS011;65885;55.848;35.916;2023-07-31T14:26:31;105.13;;;71.00;;
76939;SDS011;65885;55.848;35.916;2023-07-31T14:28:59;80.22;;;53.33;;
76939;SDS011;65885;55.848;35.916;2023-07-31T14:31:26;99.47;;;65.80;;